sensor_id;sensor_type;location;lat;lon;timestamp;pressure;altitude;pressure_sealevel;temperature;humidity
62103;BME280;48077;48.104;11.702;2024-02-15T00:01:25;96002.28;;;5.85;100.00
62103;BME280;48077;48.104;11.702;2024-02-15T00:03:54;96006.59;;;5.86;100.00
62103;BME280;48077;48.104;11.702;2024-02-15T00:06:22;96006.19;;;5.89;100.00
62103;BME280;48077;48.104;11.702;2024-02-15T00:08:50;96010.84;;;5.87;100.00
62103;BME280;48077;48.104;11.702;2024-02-15T00:11:19;96007.41;;;5.86;100.00
62103;BME280;48077;48.104;11.702;2024-02-15T00:13:48;96007.22;;;5.88;100.00
62103;BME280;48077;48.104;11.702;2024-02-15T00:16:16;96010.22;;;5.85;100.00
62103;BME280;48077;48.104;11.702;2024-02-15T00:18:43;96013.72;;;5.85;100.00
62103;BME280;48077;48.104;11.702;2024-02-15T00:21:13;96008.22;;;5.87;100.00
62103;BME280;48077;48.104;11.702;2024-02-15T00:23:41;96001.91;;;5.88;100.00
62103;BME280;48077;48.104;11.702;2024-02-15T00:26:09;96002.09;;;5.86;100.00
62103;BME280;48077;48.104;11.702;2024-02-15T00:28:41;95995.56;;;5.82;100.00
62103;BME280;48077;48.104;11.702;2024-02-15T00:31:08;95993.72;;;5.83;100.00
62103;BME280;48077;48.104;11.702;2024-02-15T00:33:36;95998.00;;;5.84;100.00
62103;BME280;48077;48.104;11.702;2024-02-15T00:36:05;96000.66;;;5.84;100.00
62103;BME280;48077;48.104;11.702;2024-02-15T00:38:35;96001.03;;;5.81;100.00
62103;BME280;48077;48.104;11.702;2024-02-15T00:41:04;96002.06;;;5.80;100.00
62103;BME280;48077;48.104;11.702;2024-02-15T00:43:34;96002.69;;;5.82;100.00
62103;BME280;48077;48.104;11.702;2024-02-15T00:46:03;96009.59;;;5.83;100.00
62103;BME280;48077;48.104;11.702;2024-02-15T00:48:31;96003.50;;;5.82;100.00
62103;BME280;48077;48.104;11.702;2024-02-15T00:50:59;95995.94;;;5.79;100.00
62103;BME280;48077;48.104;11.702;2024-02-15T00:53:27;96004.69;;;5.80;100.00
62103;BME280;48077;48.104;11.702;2024-02-15T00:55:56;96007.72;;;5.77;100.00
62103;BME280;48077;48.104;11.702;2024-02-15T00:58:24;96009.94;;;5.73;100.00
62103;BME280;48077;48.104;11.702;2024-02-15T01:00:53;96005.00;;;5.70;100.00
62103;BME280;48077;48.104;11.702;2024-02-15T01:07:43;96003.06;;;5.57;100.00
62103;BME280;48077;48.104;11.702;2024-02-15T01:10:11;96005.69;;;5.57;100.00
62103;BME280;48077;48.104;11.702;2024-02-15T01:12:38;96008.97;;;5.59;100.00
62103;BME280;48077;48.104;11.702;2024-02-15T01:15:07;96006.72;;;5.56;100.00
62103;BME280;48077;48.104;11.702;2024-02-15T01:17:35;96011.22;;;5.62;100.00
62103;BME280;48077;48.104;11.702;2024-02-15T01:20:04;96004.66;;;5.73;100.00
62103;BME280;48077;48.104;11.702;2024-02-15T01:22:33;96012.72;;;5.65;100.00
62103;BME280;48077;48.104;11.702;2024-02-15T01:25:03;96008.59;;;5.62;100.00
62103;BME280;48077;48.104;11.702;2024-02-15T01:27:31;96006.34;;;5.59;100.00
62103;BME280;48077;48.104;11.702;2024-02-15T01:29:59;96004.09;;;5.56;100.00
62103;BME280;48077;48.104;11.702;2024-02-15T01:32:27;96007.72;;;5.55;100.00
62103;BME280;48077;48.104;11.702;2024-02-15T01:34:55;96000.97;;;5.53;100.00
62103;BME280;48077;48.104;11.702;2024-02-15T01:37:23;95997.25;;;5.47;100.00
62103;BME280;48077;48.104;11.702;2024-02-15T01:39:51;96006.47;;;5.51;100.00
62103;BME280;48077;48.104;11.702;2024-02-15T01:42:20;96003.25;;;5.56;100.00
62103;BME280;48077;48.104;11.702;2024-02-15T01:44:48;95999.44;;;5.43;100.00
62103;BME280;48077;48.104;11.702;2024-02-15T01:47:17;95998.91;;;5.48;100.00
62103;BME280;48077;48.104;11.702;2024-02-15T01:49:46;95997.00;;;5.42;100.00
62103;BME280;48077;48.104;11.702;2024-02-15T01:52:16;95996.81;;;5.43;100.00
62103;BME280;48077;48.104;11.702;2024-02-15T01:54:45;95995.81;;;5.44;100.00
62103;BME280;48077;48.104;11.702;2024-02-15T01:57:13;95993.34;;;5.43;100.00
62103;BME280;48077;48.104;11.702;2024-02-15T01:59:43;95986.44;;;5.42;100.00
62103;BME280;48077;48.104;11.702;2024-02-15T02:02:12;95980.25;;;5.35;100.00
62103;BME280;48077;48.104;11.702;2024-02-15T02:04:42;95983.34;;;5.38;100.00
62103;BME280;48077;48.104;11.702;2024-02-15T02:07:10;95983.97;;;5.40;100.00
62103;BME280;48077;48.104;11.702;2024-02-15T02:09:38;95982.69;;;5.36;100.00
62103;BME280;48077;48.104;11.702;2024-02-15T02:12:06;95985.97;;;5.38;100.00
62103;BME280;48077;48.104;11.702;2024-02-15T02:14:34;95980.69;;;5.38;100.00
62103;BME280;48077;48.104;11.702;2024-02-15T02:17:12;95982.06;;;5.34;100.00
62103;BME280;48077;48.104;11.702;2024-02-15T02:19:41;95981.88;;;5.36;100.00
62103;BME280;48077;48.104;11.702;2024-02-15T02:22:11;95977.78;;;5.33;100.00
62103;BME280;48077;48.104;11.702;2024-02-15T02:24:53;95972.13;;;5.36;100.00
62103;BME280;48077;48.104;11.702;2024-02-15T02:27:21;95972.94;;;5.37;100.00
62103;BME280;48077;48.104;11.702;2024-02-15T02:29:49;95973.31;;;5.34;100.00
62103;BME280;48077;48.104;11.702;2024-02-15T02:32:17;95975.22;;;5.40;100.00
62103;BME280;48077;48.104;11.702;2024-02-15T02:34:45;95975.84;;;5.42;100.00
62103;BME280;48077;48.104;11.702;2024-02-15T02:37:12;95978.69;;;5.40;100.00
62103;BME280;48077;48.104;11.702;2024-02-15T02:39:41;95977.41;;;5.36;100.00
62103;BME280;48077;48.104;11.702;2024-02-15T02:42:11;95965.38;;;5.34;100.00
62103;BME280;48077;48.104;11.702;2024-02-15T02:44:39;95972.56;;;5.40;100.00
62103;BME280;48077;48.104;11.702;2024-02-15T02:47:07;95972.13;;;5.36;100.00
62103;BME280;48077;48.104;11.702;2024-02-15T02:49:35;95971.31;;;5.36;100.00
62103;BME280;48077;48.104;11.702;2024-02-15T02:52:04;95971.94;;;5.38;100.00
62103;BME280;48077;48.104;11.702;2024-02-15T02:54:32;95976.22;;;5.39;100.00
62103;BME280;48077;48.104;11.702;2024-02-15T02:56:59;95974.78;;;5.36;100.00
62103;BME280;48077;48.104;11.702;2024-02-15T02:59:29;95965.56;;;5.32;100.00
62103;BME280;48077;48.104;11.702;2024-02-15T03:01:57;95969.03;;;5.33;100.00
62103;BME280;48077;48.104;11.702;2024-02-15T03:04:24;95968.41;;;5.31;100.00
62103;BME280;48077;48.104;11.702;2024-02-15T03:06:53;95961.91;;;5.33;100.00
62103;BME280;48077;48.104;11.702;2024-02-15T03:09:22;95963.72;;;5.33;100.00
62103;BME280;48077;48.104;11.702;2024-02-15T03:11:52;95972.31;;;5.35;100.00
62103;BME280;48077;48.104;11.702;2024-02-15T03:14:20;95963.72;;;5.33;100.00
62103;BME280;48077;48.104;11.702;2024-02-15T03:16:49;95963.56;;;5.34;100.00
62103;BME280;48077;48.104;11.702;2024-02-15T03:19:17;95964.53;;;5.33;100.00
62103;BME280;48077;48.104;11.702;2024-02-15T03:21:45;95967.75;;;5.28;100.00
62103;BME280;48077;48.104;11.702;2024-02-15T03:24:13;95967.53;;;5.23;100.00
62103;BME280;48077;48.104;11.702;2024-02-15T03:26:41;95970.91;;;5.17;100.00
62103;BME280;48077;48.104;11.702;2024-02-15T03:29:09;95970.47;;;5.14;100.00
62103;BME280;48077;48.104;11.702;2024-02-15T03:31:37;95978.56;;;5.12;100.00
62103;BME280;48077;48.104;11.702;2024-02-15T03:34:06;95980.84;;;5.15;100.00
62103;BME280;48077;48.104;11.702;2024-02-15T03:36:37;95972.66;;;5.10;100.00
62103;BME280;48077;48.104;11.702;2024-02-15T03:39:05;95983.16;;;5.03;100.00
62103;BME280;48077;48.104;11.702;2024-02-15T03:41:35;95973.78;;;5.01;100.00
62103;BME280;48077;48.104;11.702;2024-02-15T03:44:02;95976.59;;;4.99;100.00
62103;BME280;48077;48.104;11.702;2024-02-15T03:46:30;95964.81;;;5.02;100.00
62103;BME280;48077;48.104;11.702;2024-02-15T03:48:58;95976.41;;;5.01;100.00
62103;BME280;48077;48.104;11.702;2024-02-15T03:51:28;95977.22;;;5.01;100.00
62103;BME280;48077;48.104;11.702;2024-02-15T03:53:55;95969.31;;;5.01;100.00
62103;BME280;48077;48.104;11.702;2024-02-15T03:56:23;95978.88;;;5.02;100.00
62103;BME280;48077;48.104;11.702;2024-02-15T03:58:51;95977.88;;;5.03;100.00
62103;BME280;48077;48.104;11.702;2024-02-15T04:01:19;95980.06;;;5.00;100.00
62103;BME280;48077;48.104;11.702;2024-02-15T04:03:47;95977.78;;;4.97;100.00
62103;BME280;48077;48.104;11.702;2024-02-15T04:06:14;95981.44;;;4.96;100.00
62103;BME280;48077;48.104;11.702;2024-02-15T04:08:44;95977.63;;;4.98;100.00
62103;BME280;48077;48.104;11.702;2024-02-15T04:11:11;95976.59;;;4.99;100.00
62103;BME280;48077;48.104;11.702;2024-02-15T04:13:40;95982.06;;;4.98;100.00
62103;BME280;48077;48.104;11.702;2024-02-15T04:16:09;95971.63;;;4.90;100.00
62103;BME280;48077;48.104;11.702;2024-02-15T04:18:36;95971.63;;;4.90;100.00
62103;BME280;48077;48.104;11.702;2024-02-15T04:21:05;95983.25;;;4.95;100.00
62103;BME280;48077;48.104;11.702;2024-02-15T04:23:34;95977.72;;;4.90;100.00
62103;BME280;48077;48.104;11.702;2024-02-15T04:26:03;95979.09;;;4.86;100.00
62103;BME280;48077;48.104;11.702;2024-02-15T04:28:31;95982.66;;;4.78;100.00
62103;BME280;48077;48.104;11.702;2024-02-15T04:31:00;95985.03;;;4.73;100.00
62103;BME280;48077;48.104;11.702;2024-02-15T04:33:27;95978.66;;;4.68;100.00
62103;BME280;48077;48.104;11.702;2024-02-15T04:35:55;95989.56;;;4.64;100.00
62103;BME280;48077;48.104;11.702;2024-02-15T04:38:24;95989.97;;;4.61;100.00
62103;BME280;48077;48.104;11.702;2024-02-15T04:40:52;95983.03;;;4.60;100.00
62103;BME280;48077;48.104;11.702;2024-02-15T04:43:22;95983.56;;;4.56;100.00
62103;BME280;48077;48.104;11.702;2024-02-15T04:45:52;95986.44;;;4.54;100.00
62103;BME280;48077;48.104;11.702;2024-02-15T04:48:20;95983.13;;;4.52;100.00
62103;BME280;48077;48.104;11.702;2024-02-15T04:50:49;95982.22;;;4.45;100.00
62103;BME280;48077;48.104;11.702;2024-02-15T04:53:18;95982.59;;;4.42;100.00
62103;BME280;48077;48.104;11.702;2024-02-15T04:55:46;95988.06;;;4.40;100.00
62103;BME280;48077;48.104;11.702;2024-02-15T04:58:14;95988.69;;;4.42;100.00
62103;BME280;48077;48.104;11.702;2024-02-15T05:00:43;95975.09;;;4.31;100.00
62103;BME280;48077;48.104;11.702;2024-02-15T05:03:11;95973.56;;;4.36;100.00
62103;BME280;48077;48.104;11.702;2024-02-15T05:05:39;95979.66;;;4.37;100.00
62103;BME280;48077;48.104;11.702;2024-02-15T05:08:07;95975.19;;;4.37;100.00
62103;BME280;48077;48.104;11.702;2024-02-15T05:10:35;95978.22;;;4.34;100.00
62103;BME280;48077;48.104;11.702;2024-02-15T05:13:03;95978.56;;;4.31;100.00
62103;BME280;48077;48.104;11.702;2024-02-15T05:15:31;95982.56;;;4.27;100.00
62103;BME280;48077;48.104;11.702;2024-02-15T05:18:00;95982.31;;;4.22;100.00
62103;BME280;48077;48.104;11.702;2024-02-15T05:20:29;95964.28;;;4.25;100.00
62103;BME280;48077;48.104;11.702;2024-02-15T05:22:56;95965.47;;;4.23;100.00
62103;BME280;48077;48.104;11.702;2024-02-15T05:25:25;95966.84;;;4.19;100.00
62103;BME280;48077;48.104;11.702;2024-02-15T05:27:53;95975.00;;;4.09;100.00
62103;BME280;48077;48.104;11.702;2024-02-15T05:30:23;95971.09;;;4.05;100.00
62103;BME280;48077;48.104;11.702;2024-02-15T05:32:51;95973.63;;;3.98;100.00
62103;BME280;48077;48.104;11.702;2024-02-15T05:35:22;95971.88;;;3.91;100.00
62103;BME280;48077;48.104;11.702;2024-02-15T05:37:51;95968.13;;;3.85;100.00
62103;BME280;48077;48.104;11.702;2024-02-15T05:40:20;95966.41;;;3.77;100.00
62103;BME280;48077;48.104;11.702;2024-02-15T05:42:48;95974.56;;;3.68;100.00
62103;BME280;48077;48.104;11.702;2024-02-15T05:45:29;95978.00;;;3.68;100.00
62103;BME280;48077;48.104;11.702;2024-02-15T05:48:00;95981.00;;;3.65;100.00
62103;BME280;48077;48.104;11.702;2024-02-15T05:50:29;95969.88;;;3.55;100.00
62103;BME280;48077;48.104;11.702;2024-02-15T05:52:58;95972.53;;;3.55;100.00
62103;BME280;48077;48.104;11.702;2024-02-15T05:55:27;95974.69;;;3.51;100.00
62103;BME280;48077;48.104;11.702;2024-02-15T05:57:56;95973.75;;;3.44;100.00
62103;BME280;48077;48.104;11.702;2024-02-15T06:00:23;95970.66;;;3.40;100.00
62103;BME280;48077;48.104;11.702;2024-02-15T06:02:51;95974.16;;;3.33;100.00
62103;BME280;48077;48.104;11.702;2024-02-15T06:05:20;95963.84;;;3.23;100.00
62103;BME280;48077;48.104;11.702;2024-02-15T06:07:49;95972.75;;;3.22;100.00
62103;BME280;48077;48.104;11.702;2024-02-15T06:10:17;95969.13;;;3.23;100.00
62103;BME280;48077;48.104;11.702;2024-02-15T06:12:45;95977.09;;;3.15;100.00
62103;BME280;48077;48.104;11.702;2024-02-15T06:15:13;95976.13;;;3.08;100.00
62103;BME280;48077;48.104;11.702;2024-02-15T06:17:43;95976.81;;;3.01;100.00
62103;BME280;48077;48.104;11.702;2024-02-15T06:20:13;95970.78;;;2.93;100.00
62103;BME280;48077;48.104;11.702;2024-02-15T06:22:42;95978.53;;;2.94;100.00
62103;BME280;48077;48.104;11.702;2024-02-15T06:25:10;95984.63;;;2.87;100.00
62103;BME280;48077;48.104;11.702;2024-02-15T06:27:39;95977.75;;;2.86;100.00
62103;BME280;48077;48.104;11.702;2024-02-15T06:30:10;95978.88;;;2.83;100.00
62103;BME280;48077;48.104;11.702;2024-02-15T06:32:55;95978.59;;;2.78;100.00
62103;BME280;48077;48.104;11.702;2024-02-15T06:35:41;95985.94;;;2.91;100.00
62103;BME280;48077;48.104;11.702;2024-02-15T06:38:26;95982.22;;;2.77;100.00
62103;BME280;48077;48.104;11.702;2024-02-15T06:41:13;95997.00;;;2.86;100.00
62103;BME280;48077;48.104;11.702;2024-02-15T06:43:41;95995.38;;;2.77;100.00
62103;BME280;48077;48.104;11.702;2024-02-15T06:46:09;95996.72;;;2.73;100.00
62103;BME280;48077;48.104;11.702;2024-02-15T06:48:37;95997.84;;;2.78;100.00
62103;BME280;48077;48.104;11.702;2024-02-15T06:51:07;96000.16;;;2.81;100.00
62103;BME280;48077;48.104;11.702;2024-02-15T06:53:39;95997.31;;;2.83;100.00
62103;BME280;48077;48.104;11.702;2024-02-15T06:56:08;96003.09;;;2.87;100.00
62103;BME280;48077;48.104;11.702;2024-02-15T06:58:37;96002.91;;;2.88;100.00
62103;BME280;48077;48.104;11.702;2024-02-15T07:01:07;95995.31;;;2.93;100.00
62103;BME280;48077;48.104;11.702;2024-02-15T07:03:35;96000.41;;;2.95;100.00
62103;BME280;48077;48.104;11.702;2024-02-15T07:06:04;96001.41;;;2.94;100.00
62103;BME280;48077;48.104;11.702;2024-02-15T07:08:32;96014.88;;;2.99;100.00
62103;BME280;48077;48.104;11.702;2024-02-15T07:11:00;96007.91;;;3.06;100.00
62103;BME280;48077;48.104;11.702;2024-02-15T07:13:28;96005.44;;;3.13;100.00
62103;BME280;48077;48.104;11.702;2024-02-15T07:15:57;96007.72;;;3.16;100.00
62103;BME280;48077;48.104;11.702;2024-02-15T07:18:25;96003.09;;;3.18;100.00
62103;BME280;48077;48.104;11.702;2024-02-15T07:20:55;96005.69;;;3.26;100.00
62103;BME280;48077;48.104;11.702;2024-02-15T07:23:26;96004.34;;;3.30;100.00
62103;BME280;48077;48.104;11.702;2024-02-15T07:25:54;96006.59;;;3.33;100.00
62103;BME280;48077;48.104;11.702;2024-02-15T07:28:22;96005.09;;;3.39;100.00
62103;BME280;48077;48.104;11.702;2024-02-15T07:30:52;96004.41;;;3.45;100.00
62103;BME280;48077;48.104;11.702;2024-02-15T07:33:22;95996.47;;;3.45;100.00
62103;BME280;48077;48.104;11.702;2024-02-15T07:35:51;96003.69;;;3.51;100.00
62103;BME280;48077;48.104;11.702;2024-02-15T07:38:20;95992.59;;;3.56;100.00
62103;BME280;48077;48.104;11.702;2024-02-15T07:40:49;95999.00;;;3.61;100.00
62103;BME280;48077;48.104;11.702;2024-02-15T07:43:17;95995.66;;;3.68;100.00
62103;BME280;48077;48.104;11.702;2024-02-15T07:45:44;95996.94;;;3.72;100.00
62103;BME280;48077;48.104;11.702;2024-02-15T07:48:15;95990.97;;;3.78;100.00
62103;BME280;48077;48.104;11.702;2024-02-15T07:50:45;95991.72;;;3.87;100.00
62103;BME280;48077;48.104;11.702;2024-02-15T07:53:13;95986.72;;;3.92;100.00
62103;BME280;48077;48.104;11.702;2024-02-15T07:55:40;95991.91;;;4.00;100.00
62103;BME280;48077;48.104;11.702;2024-02-15T07:58:08;95989.84;;;4.10;100.00
62103;BME280;48077;48.104;11.702;2024-02-15T08:00:37;95975.03;;;4.24;100.00
62103;BME280;48077;48.104;11.702;2024-02-15T08:03:05;95971.66;;;4.30;100.00
62103;BME280;48077;48.104;11.702;2024-02-15T08:05:34;95975.31;;;4.44;100.00
62103;BME280;48077;48.104;11.702;2024-02-15T08:08:05;95975.66;;;4.56;100.00
62103;BME280;48077;48.104;11.702;2024-02-15T08:10:33;95966.81;;;4.63;100.00
62103;BME280;48077;48.104;11.702;2024-02-15T08:13:01;95973.28;;;4.76;100.00
62103;BME280;48077;48.104;11.702;2024-02-15T08:15:28;95966.81;;;5.15;100.00
62103;BME280;48077;48.104;11.702;2024-02-15T08:17:56;95974.31;;;5.33;100.00
62103;BME280;48077;48.104;11.702;2024-02-15T08:20:25;95959.81;;;5.28;100.00
62103;BME280;48077;48.104;11.702;2024-02-15T08:22:58;95964.06;;;5.44;100.00
62103;BME280;48077;48.104;11.702;2024-02-15T08:25:27;95961.97;;;5.61;100.00
62103;BME280;48077;48.104;11.702;2024-02-15T08:27:55;95957.56;;;5.68;100.00
62103;BME280;48077;48.104;11.702;2024-02-15T08:30:22;95961.75;;;5.84;100.00
62103;BME280;48077;48.104;11.702;2024-02-15T08:32:51;95963.59;;;6.05;100.00
62103;BME280;48077;48.104;11.702;2024-02-15T08:35:22;95955.69;;;6.12;100.00
62103;BME280;48077;48.104;11.702;2024-02-15T08:37:50;95950.28;;;6.27;100.00
62103;BME280;48077;48.104;11.702;2024-02-15T08:40:19;95950.38;;;6.40;100.00
62103;BME280;48077;48.104;11.702;2024-02-15T08:42:53;95947.03;;;6.66;100.00
62103;BME280;48077;48.104;11.702;2024-02-15T08:45:22;95943.22;;;6.76;100.00
62103;BME280;48077;48.104;11.702;2024-02-15T08:47:50;95946.28;;;6.79;100.00
62103;BME280;48077;48.104;11.702;2024-02-15T08:50:19;95945.69;;;6.84;100.00
62103;BME280;48077;48.104;11.702;2024-02-15T08:52:50;95947.13;;;6.93;100.00
62103;BME280;48077;48.104;11.702;2024-02-15T08:55:18;95948.63;;;7.02;100.00
62103;BME280;48077;48.104;11.702;2024-02-15T08:57:50;95950.53;;;7.35;100.00
62103;BME280;48077;48.104;11.702;2024-02-15T09:00:20;95947.72;;;7.57;100.00
62103;BME280;48077;48.104;11.702;2024-02-15T09:02:48;95942.19;;;7.58;100.00
62103;BME280;48077;48.104;11.702;2024-02-15T09:05:16;95941.00;;;7.94;100.00
62103;BME280;48077;48.104;11.702;2024-02-15T09:07:45;95943.22;;;7.97;100.00
62103;BME280;48077;48.104;11.702;2024-02-15T09:10:15;95939.31;;;8.26;100.00
62103;BME280;48077;48.104;11.702;2024-02-15T09:12:45;95923.59;;;8.18;100.00
62103;BME280;48077;48.104;11.702;2024-02-15T09:15:16;95938.47;;;8.59;100.00
62103;BME280;48077;48.104;11.702;2024-02-15T09:17:46;95931.72;;;8.57;100.00
62103;BME280;48077;48.104;11.702;2024-02-15T09:20:15;95932.69;;;8.76;100.00
62103;BME280;48077;48.104;11.702;2024-02-15T09:22:47;95922.44;;;8.73;100.00
62103;BME280;48077;48.104;11.702;2024-02-15T09:25:16;95919.53;;;8.87;100.00
62103;BME280;48077;48.104;11.702;2024-02-15T09:27:44;95916.81;;;9.01;100.00
62103;BME280;48077;48.104;11.702;2024-02-15T09:30:13;95912.03;;;9.16;100.00
62103;BME280;48077;48.104;11.702;2024-02-15T09:32:42;95915.13;;;9.45;100.00
62103;BME280;48077;48.104;11.702;2024-02-15T09:35:13;95914.63;;;9.61;100.00
62103;BME280;48077;48.104;11.702;2024-02-15T09:37:44;95909.03;;;9.69;100.00
62103;BME280;48077;48.104;11.702;2024-02-15T09:40:13;95902.16;;;9.80;100.00
62103;BME280;48077;48.104;11.702;2024-02-15T09:42:43;95903.31;;;9.91;100.00
62103;BME280;48077;48.104;11.702;2024-02-15T09:45:12;95907.97;;;9.96;100.00
62103;BME280;48077;48.104;11.702;2024-02-15T09:47:42;95905.00;;;10.10;100.00
62103;BME280;48077;48.104;11.702;2024-02-15T09:50:13;95905.59;;;10.12;100.00
62103;BME280;48077;48.104;11.702;2024-02-15T09:52:44;95905.63;;;10.31;100.00
62103;BME280;48077;48.104;11.702;2024-02-15T09:55:13;95897.03;;;10.47;100.00
62103;BME280;48077;48.104;11.702;2024-02-15T09:57:43;95899.59;;;10.61;100.00
62103;BME280;48077;48.104;11.702;2024-02-15T10:00:12;95898.03;;;10.71;100.00
62103;BME280;48077;48.104;11.702;2024-02-15T10:02:42;95892.50;;;10.85;100.00
62103;BME280;48077;48.104;11.702;2024-02-15T10:05:13;95890.34;;;10.93;100.00
62103;BME280;48077;48.104;11.702;2024-02-15T10:07:41;95887.53;;;11.07;100.00
62103;BME280;48077;48.104;11.702;2024-02-15T10:10:15;95884.50;;;11.45;100.00
62103;BME280;48077;48.104;11.702;2024-02-15T10:12:44;95879.94;;;11.34;98.44
62103;BME280;48077;48.104;11.702;2024-02-15T10:15:28;95878.31;;;11.33;96.19
62103;BME280;48077;48.104;11.702;2024-02-15T10:18:00;95881.66;;;11.28;98.24
62103;BME280;48077;48.104;11.702;2024-02-15T10:20:30;95871.31;;;11.74;93.74
62103;BME280;48077;48.104;11.702;2024-02-15T10:23:10;95867.97;;;11.67;93.60
62103;BME280;48077;48.104;11.702;2024-02-15T10:25:40;95865.56;;;12.01;91.08
62103;BME280;48077;48.104;11.702;2024-02-15T10:28:08;95867.19;;;12.25;89.37
62103;BME280;48077;48.104;11.702;2024-02-15T10:30:38;95869.25;;;12.35;87.54
62103;BME280;48077;48.104;11.702;2024-02-15T10:33:06;95859.91;;;12.61;83.26
62103;BME280;48077;48.104;11.702;2024-02-15T10:35:36;95859.78;;;12.56;78.96
62103;BME280;48077;48.104;11.702;2024-02-15T10:38:05;95857.81;;;12.63;78.35
62103;BME280;48077;48.104;11.702;2024-02-15T10:40:34;95853.72;;;12.72;78.59
62103;BME280;48077;48.104;11.702;2024-02-15T10:43:03;95850.25;;;13.01;77.64
62103;BME280;48077;48.104;11.702;2024-02-15T10:45:31;95854.59;;;12.90;74.03
62103;BME280;48077;48.104;11.702;2024-02-15T10:47:59;95840.66;;;12.88;72.73
62103;BME280;48077;48.104;11.702;2024-02-15T10:50:27;95832.59;;;13.16;73.41
62103;BME280;48077;48.104;11.702;2024-02-15T10:52:58;95825.22;;;13.35;72.19
62103;BME280;48077;48.104;11.702;2024-02-15T10:55:35;95833.09;;;13.59;72.04
62103;BME280;48077;48.104;11.702;2024-02-15T10:58:06;95824.66;;;13.50;70.24
62103;BME280;48077;48.104;11.702;2024-02-15T11:00:34;95812.13;;;13.90;71.07
62103;BME280;48077;48.104;11.702;2024-02-15T11:03:05;95814.72;;;13.85;69.03
62103;BME280;48077;48.104;11.702;2024-02-15T11:05:36;95808.00;;;14.21;69.17
62103;BME280;48077;48.104;11.702;2024-02-15T11:08:09;95799.13;;;14.60;67.24
62103;BME280;48077;48.104;11.702;2024-02-15T11:10:39;95799.94;;;14.60;66.09
62103;BME280;48077;48.104;11.702;2024-02-15T11:13:10;95774.56;;;14.51;64.88
62103;BME280;48077;48.104;11.702;2024-02-15T11:15:44;95793.47;;;14.83;64.49
62103;BME280;48077;48.104;11.702;2024-02-15T11:18:41;95789.59;;;14.96;63.71
62103;BME280;48077;48.104;11.702;2024-02-15T11:21:10;95783.66;;;15.21;62.34
62103;BME280;48077;48.104;11.702;2024-02-15T11:23:39;95777.84;;;15.29;61.88
62103;BME280;48077;48.104;11.702;2024-02-15T11:26:09;95786.00;;;15.40;62.00
62103;BME280;48077;48.104;11.702;2024-02-15T11:28:38;95777.56;;;15.31;62.16
62103;BME280;48077;48.104;11.702;2024-02-15T11:34:43;95770.47;;;15.52;59.44
62103;BME280;48077;48.104;11.702;2024-02-15T11:37:49;95769.22;;;14.73;61.15
62103;BME280;48077;48.104;11.702;2024-02-15T11:40:21;95765.50;;;15.33;61.63
62103;BME280;48077;48.104;11.702;2024-02-15T11:42:51;95761.91;;;15.23;60.24
62103;BME280;48077;48.104;11.702;2024-02-15T11:45:20;95763.16;;;15.42;59.40
62103;BME280;48077;48.104;11.702;2024-02-15T11:47:50;95757.19;;;15.08;58.94
62103;BME280;48077;48.104;11.702;2024-02-15T11:50:19;95741.88;;;15.35;60.13
62103;BME280;48077;48.104;11.702;2024-02-15T11:52:48;95737.66;;;15.82;58.38
62103;BME280;48077;48.104;11.702;2024-02-15T11:55:21;95729.66;;;15.60;58.07
62103;BME280;48077;48.104;11.702;2024-02-15T11:57:56;95733.00;;;15.72;58.52
62103;BME280;48077;48.104;11.702;2024-02-15T12:00:30;95729.16;;;15.26;58.48
62103;BME280;48077;48.104;11.702;2024-02-15T12:03:17;95720.25;;;15.57;57.90
62103;BME280;48077;48.104;11.702;2024-02-15T12:06:03;95714.56;;;15.91;56.98
62103;BME280;48077;48.104;11.702;2024-02-15T12:08:48;95717.66;;;16.15;57.90
62103;BME280;48077;48.104;11.702;2024-02-15T12:11:35;95702.94;;;16.33;56.24
62103;BME280;48077;48.104;11.702;2024-02-15T12:14:20;95710.97;;;16.23;57.62
62103;BME280;48077;48.104;11.702;2024-02-15T12:17:07;95704.09;;;15.52;56.86
62103;BME280;48077;48.104;11.702;2024-02-15T12:19:54;95708.53;;;15.31;58.27
62103;BME280;48077;48.104;11.702;2024-02-15T12:22:25;95706.41;;;15.38;56.40
62103;BME280;48077;48.104;11.702;2024-02-15T12:24:57;95705.38;;;14.80;58.48
62103;BME280;48077;48.104;11.702;2024-02-15T12:27:28;95702.00;;;14.90;59.37
62103;BME280;48077;48.104;11.702;2024-02-15T12:29:57;95702.00;;;14.63;59.26
62103;BME280;48077;48.104;11.702;2024-02-15T12:32:27;95696.88;;;14.39;60.91
62103;BME280;48077;48.104;11.702;2024-02-15T12:35:09;95692.47;;;14.28;61.16
62103;BME280;48077;48.104;11.702;2024-02-15T12:37:42;95684.19;;;14.07;61.30
62103;BME280;48077;48.104;11.702;2024-02-15T12:40:10;95687.28;;;13.99;62.59
62103;BME280;48077;48.104;11.702;2024-02-15T12:42:44;95686.06;;;14.07;64.34
62103;BME280;48077;48.104;11.702;2024-02-15T12:45:16;95682.09;;;14.14;62.41
62103;BME280;48077;48.104;11.702;2024-02-15T12:47:50;95679.06;;;14.06;63.16
62103;BME280;48077;48.104;11.702;2024-02-15T12:50:20;95677.38;;;14.00;63.41
62103;BME280;48077;48.104;11.702;2024-02-15T12:52:49;95681.25;;;14.09;62.65
62103;BME280;48077;48.104;11.702;2024-02-15T12:55:18;95676.19;;;14.12;63.52
62103;BME280;48077;48.104;11.702;2024-02-15T12:57:50;95669.47;;;13.88;61.69
62103;BME280;48077;48.104;11.702;2024-02-15T13:00:19;95669.53;;;13.71;63.64
62103;BME280;48077;48.104;11.702;2024-02-15T13:02:48;95659.38;;;13.73;63.20
62103;BME280;48077;48.104;11.702;2024-02-15T13:05:18;95661.03;;;14.01;64.01
62103;BME280;48077;48.104;11.702;2024-02-15T13:07:46;95661.91;;;13.85;62.08
62103;BME280;48077;48.104;11.702;2024-02-15T13:10:14;95658.66;;;13.83;62.90
62103;BME280;48077;48.104;11.702;2024-02-15T13:12:43;95652.25;;;13.84;61.77